Aeroporto :
LOGIN :

Iscrizione | Disclaimer

   EN    FR    IT 

 










Sommario :    VFR   VFR Marginale   IFR   IFR Intensivo   IFR Molto Intensivo
Visibilità : 
Base nubi : 
>= 8 km
>= 3000ft
5 / 8 km
1000 / 3000 ft
1500m / 5 km
500 / 1000 ft
800 / 1500m
200 / 500 ft
< 800m
< 200 ft
Simboli :   Temporali  Nebbia  Neve Forte  Precipitazioni Forti  Vento > 20 kt
SIGMETs :   Varie  Temporali  Ghiacco  Turbolenza  Onda orograficha  Ceneri Vulcaniche







- Altitudine del aeroporto : 194 ft
- Codice IATA : ANE
- Carte del aeroporto


LFJR - Angers Marcé

ULTIMO METAR :
  • 161200Z AUTO 15008KT CAVOK 14/07 Q1026 NOSIG

METARs OBSOLETI :
  • 161130Z AUTO 14004KT CAVOK 13/07 Q1027 NOSIG
  • 161100Z AUTO 14003KT 080V190 CAVOK 12/06 Q1027 NOSIG
  • 161030Z AUTO 16003KT 130V200 CAVOK 11/05 Q1027 NOSIG
  • 161000Z AUTO 14004KT CAVOK 09/05 Q1027 NOSIG
  • 160930Z AUTO VRB03KT CAVOK 08/04 Q1027 NOSIG

TAF TAF LFJR
Valido dal 16 a 12 ore il 16 a 21 ore UTC


161100Z 1612/1621 12005KT CAVOK
Nessun NOTAM noto per questo aeroporto.



MetMap, La meteo Aeronautica in un colpo d'occhio ! - Copyright ORBIFLY Dicembre 2007 - Disclaimer

ORBIFLY MET'MAP TEAM :

Programmazione e sviluppo : Alexandra Zaïnal
Concezione e sviluppo : Baudouin d'Aumeries
Co-Programmazione e sviluppo : Marc-Olivier Méhu
Supporto tecnico e logistico : Manuel Goepfert
Aiuto per la traduzione : Arnaldo La Scala

Contatto : metmap@orbifly.com




FONTI E CREDITI :

   NOAA